sensor_id;sensor_type;location;lat;lon;timestamp;temperature;humidity
15364;DHT22;7781;49.690;6.472;2023-05-27T00:00:25;12.40;99.90
15364;DHT22;7781;49.690;6.472;2023-05-27T00:02:54;12.30;99.90
15364;DHT22;7781;49.690;6.472;2023-05-27T00:05:23;12.20;99.90
15364;DHT22;7781;49.690;6.472;2023-05-27T00:07:52;12.10;99.90
15364;DHT22;7781;49.690;6.472;2023-05-27T00:10:24;12.10;99.90
15364;DHT22;7781;49.690;6.472;2023-05-27T00:12:53;12.00;99.90
15364;DHT22;7781;49.690;6.472;2023-05-27T00:15:23;11.90;99.90
15364;DHT22;7781;49.690;6.472;2023-05-27T00:17:54;11.80;99.90
15364;DHT22;7781;49.690;6.472;2023-05-27T00:20:23;11.70;99.90
15364;DHT22;7781;49.690;6.472;2023-05-27T00:22:52;11.70;99.90
15364;DHT22;7781;49.690;6.472;2023-05-27T00:25:21;11.60;99.90
15364;DHT22;7781;49.690;6.472;2023-05-27T00:27:56;11.50;99.90
15364;DHT22;7781;49.690;6.472;2023-05-27T00:30:25;11.50;99.90
15364;DHT22;7781;49.690;6.472;2023-05-27T00:32:54;11.40;99.90
15364;DHT22;7781;49.690;6.472;2023-05-27T00:35:26;11.40;99.90
15364;DHT22;7781;49.690;6.472;2023-05-27T00:37:54;11.30;99.90
15364;DHT22;7781;49.690;6.472;2023-05-27T00:40:26;11.30;99.90
15364;DHT22;7781;49.690;6.472;2023-05-27T00:42:57;11.30;99.90
15364;DHT22;7781;49.690;6.472;2023-05-27T00:45:25;11.30;99.90
15364;DHT22;7781;49.690;6.472;2023-05-27T00:47:56;11.30;99.90
15364;DHT22;7781;49.690;6.472;2023-05-27T00:50:28;11.40;99.90
15364;DHT22;7781;49.690;6.472;2023-05-27T00:52:57;11.40;99.90
15364;DHT22;7781;49.690;6.472;2023-05-27T00:55:27;11.50;99.90
15364;DHT22;7781;49.690;6.472;2023-05-27T00:57:59;11.50;99.90
15364;DHT22;7781;49.690;6.472;2023-05-27T01:00:29;11.50;99.90
15364;DHT22;7781;49.690;6.472;2023-05-27T01:02:58;11.50;99.90
15364;DHT22;7781;49.690;6.472;2023-05-27T01:05:31;11.60;99.90
15364;DHT22;7781;49.690;6.472;2023-05-27T01:08:17;11.60;99.90
15364;DHT22;7781;49.690;6.472;2023-05-27T01:10:51;11.60;99.90
15364;DHT22;7781;49.690;6.472;2023-05-27T01:13:31;11.70;99.90
15364;DHT22;7781;49.690;6.472;2023-05-27T01:16:09;11.70;99.90
15364;DHT22;7781;49.690;6.472;2023-05-27T01:18:40;11.80;99.90
15364;DHT22;7781;49.690;6.472;2023-05-27T01:21:15;11.80;99.90
15364;DHT22;7781;49.690;6.472;2023-05-27T01:23:49;11.80;99.90
15364;DHT22;7781;49.690;6.472;2023-05-27T01:26:17;11.90;99.90
15364;DHT22;7781;49.690;6.472;2023-05-27T01:28:48;11.80;99.90
15364;DHT22;7781;49.690;6.472;2023-05-27T01:31:19;11.80;99.90
15364;DHT22;7781;49.690;6.472;2023-05-27T01:33:53;11.70;99.90
15364;DHT22;7781;49.690;6.472;2023-05-27T01:36:28;11.70;99.90
15364;DHT22;7781;49.690;6.472;2023-05-27T01:39:00;11.70;99.90
15364;DHT22;7781;49.690;6.472;2023-05-27T01:41:32;11.70;99.90
15364;DHT22;7781;49.690;6.472;2023-05-27T01:44:04;11.70;99.90
15364;DHT22;7781;49.690;6.472;2023-05-27T01:46:33;11.70;99.90
15364;DHT22;7781;49.690;6.472;2023-05-27T01:49:02;11.60;99.90
15364;DHT22;7781;49.690;6.472;2023-05-27T01:51:31;11.60;99.90
15364;DHT22;7781;49.690;6.472;2023-05-27T01:54:02;11.60;99.90
15364;DHT22;7781;49.690;6.472;2023-05-27T01:56:31;11.60;99.90
15364;DHT22;7781;49.690;6.472;2023-05-27T01:59:03;11.60;99.90
15364;DHT22;7781;49.690;6.472;2023-05-27T02:01:35;11.50;99.90
15364;DHT22;7781;49.690;6.472;2023-05-27T02:04:04;11.50;99.90
15364;DHT22;7781;49.690;6.472;2023-05-27T02:06:34;11.50;99.90
15364;DHT22;7781;49.690;6.472;2023-05-27T02:09:05;11.50;99.90
15364;DHT22;7781;49.690;6.472;2023-05-27T02:11:35;11.50;99.90
15364;DHT22;7781;49.690;6.472;2023-05-27T02:14:05;11.40;99.90
15364;DHT22;7781;49.690;6.472;2023-05-27T02:16:37;11.40;99.90
15364;DHT22;7781;49.690;6.472;2023-05-27T02:19:07;11.40;99.90
15364;DHT22;7781;49.690;6.472;2023-05-27T02:21:36;11.40;99.90
15364;DHT22;7781;49.690;6.472;2023-05-27T02:24:08;11.40;99.90
15364;DHT22;7781;49.690;6.472;2023-05-27T02:26:36;11.40;99.90
15364;DHT22;7781;49.690;6.472;2023-05-27T02:29:07;11.50;99.90
15364;DHT22;7781;49.690;6.472;2023-05-27T02:31:36;11.40;99.90
15364;DHT22;7781;49.690;6.472;2023-05-27T02:34:05;11.50;99.90
15364;DHT22;7781;49.690;6.472;2023-05-27T02:36:35;11.50;99.90
15364;DHT22;7781;49.690;6.472;2023-05-27T02:39:07;11.40;99.90
15364;DHT22;7781;49.690;6.472;2023-05-27T02:41:37;11.50;99.90
15364;DHT22;7781;49.690;6.472;2023-05-27T02:44:06;11.50;99.90
15364;DHT22;7781;49.690;6.472;2023-05-27T02:46:35;11.50;99.90
15364;DHT22;7781;49.690;6.472;2023-05-27T02:49:06;11.50;99.90
15364;DHT22;7781;49.690;6.472;2023-05-27T02:51:36;11.50;99.90
15364;DHT22;7781;49.690;6.472;2023-05-27T02:54:05;11.40;99.90
15364;DHT22;7781;49.690;6.472;2023-05-27T02:56:36;11.40;99.90
15364;DHT22;7781;49.690;6.472;2023-05-27T02:59:05;11.30;99.90
15364;DHT22;7781;49.690;6.472;2023-05-27T03:01:35;11.30;99.90
15364;DHT22;7781;49.690;6.472;2023-05-27T03:04:04;11.30;99.90
15364;DHT22;7781;49.690;6.472;2023-05-27T03:06:33;11.20;99.90
15364;DHT22;7781;49.690;6.472;2023-05-27T03:09:03;11.20;99.90
15364;DHT22;7781;49.690;6.472;2023-05-27T03:11:32;11.10;99.90
15364;DHT22;7781;49.690;6.472;2023-05-27T03:14:03;11.10;99.90
15364;DHT22;7781;49.690;6.472;2023-05-27T03:16:31;11.00;99.90
15364;DHT22;7781;49.690;6.472;2023-05-27T03:19:03;10.90;99.90
15364;DHT22;7781;49.690;6.472;2023-05-27T03:21:33;10.80;99.90
15364;DHT22;7781;49.690;6.472;2023-05-27T03:24:02;10.80;99.90
15364;DHT22;7781;49.690;6.472;2023-05-27T03:26:33;10.70;99.90
15364;DHT22;7781;49.690;6.472;2023-05-27T03:29:06;10.70;99.90
15364;DHT22;7781;49.690;6.472;2023-05-27T03:31:35;10.70;99.90
15364;DHT22;7781;49.690;6.472;2023-05-27T03:34:08;10.70;99.90
15364;DHT22;7781;49.690;6.472;2023-05-27T03:36:40;10.70;99.90
15364;DHT22;7781;49.690;6.472;2023-05-27T03:39:10;10.60;99.90
15364;DHT22;7781;49.690;6.472;2023-05-27T03:41:45;10.60;99.90
15364;DHT22;7781;49.690;6.472;2023-05-27T03:44:16;10.60;99.90
15364;DHT22;7781;49.690;6.472;2023-05-27T03:46:46;10.70;99.90
15364;DHT22;7781;49.690;6.472;2023-05-27T03:49:15;10.70;99.90
15364;DHT22;7781;49.690;6.472;2023-05-27T03:51:45;10.70;99.90
15364;DHT22;7781;49.690;6.472;2023-05-27T03:54:14;10.70;99.90
15364;DHT22;7781;49.690;6.472;2023-05-27T03:56:42;10.70;99.90
15364;DHT22;7781;49.690;6.472;2023-05-27T03:59:12;10.70;99.90
15364;DHT22;7781;49.690;6.472;2023-05-27T04:01:43;10.70;99.90
15364;DHT22;7781;49.690;6.472;2023-05-27T04:04:12;10.70;99.90
15364;DHT22;7781;49.690;6.472;2023-05-27T04:06:41;10.70;99.90
15364;DHT22;7781;49.690;6.472;2023-05-27T04:09:10;10.70;99.90
15364;DHT22;7781;49.690;6.472;2023-05-27T04:11:39;10.80;99.90
15364;DHT22;7781;49.690;6.472;2023-05-27T04:14:09;10.80;99.90
15364;DHT22;7781;49.690;6.472;2023-05-27T04:16:37;10.90;99.90
15364;DHT22;7781;49.690;6.472;2023-05-27T04:19:10;10.90;99.90
15364;DHT22;7781;49.690;6.472;2023-05-27T04:21:38;10.90;99.90
15364;DHT22;7781;49.690;6.472;2023-05-27T04:24:08;10.90;99.90
15364;DHT22;7781;49.690;6.472;2023-05-27T04:26:37;10.90;99.90
15364;DHT22;7781;49.690;6.472;2023-05-27T04:29:08;11.00;99.90
15364;DHT22;7781;49.690;6.472;2023-05-27T04:31:39;11.00;99.90
15364;DHT22;7781;49.690;6.472;2023-05-27T04:34:14;11.00;99.90
15364;DHT22;7781;49.690;6.472;2023-05-27T04:36:45;11.10;99.90
15364;DHT22;7781;49.690;6.472;2023-05-27T04:39:20;11.10;99.90
15364;DHT22;7781;49.690;6.472;2023-05-27T04:41:50;11.10;99.90
15364;DHT22;7781;49.690;6.472;2023-05-27T04:44:32;11.20;99.90
15364;DHT22;7781;49.690;6.472;2023-05-27T04:47:02;11.20;99.90
15364;DHT22;7781;49.690;6.472;2023-05-27T04:49:34;11.30;99.90
15364;DHT22;7781;49.690;6.472;2023-05-27T04:52:05;11.30;99.90
15364;DHT22;7781;49.690;6.472;2023-05-27T04:54:37;11.30;99.90
15364;DHT22;7781;49.690;6.472;2023-05-27T04:57:15;11.30;99.90
15364;DHT22;7781;49.690;6.472;2023-05-27T04:59:46;11.40;99.90
15364;DHT22;7781;49.690;6.472;2023-05-27T05:02:27;11.40;99.90
15364;DHT22;7781;49.690;6.472;2023-05-27T05:05:17;11.40;99.90
15364;DHT22;7781;49.690;6.472;2023-05-27T05:07:46;11.50;99.90
15364;DHT22;7781;49.690;6.472;2023-05-27T05:10:18;11.50;99.90
15364;DHT22;7781;49.690;6.472;2023-05-27T05:12:50;11.50;99.90
15364;DHT22;7781;49.690;6.472;2023-05-27T05:15:20;11.60;99.90
15364;DHT22;7781;49.690;6.472;2023-05-27T05:17:51;11.60;99.90
15364;DHT22;7781;49.690;6.472;2023-05-27T05:20:26;11.70;99.90
15364;DHT22;7781;49.690;6.472;2023-05-27T05:22:56;11.70;99.90
15364;DHT22;7781;49.690;6.472;2023-05-27T05:25:25;11.70;99.90
15364;DHT22;7781;49.690;6.472;2023-05-27T05:27:55;11.80;99.90
15364;DHT22;7781;49.690;6.472;2023-05-27T05:30:24;11.80;99.90
15364;DHT22;7781;49.690;6.472;2023-05-27T05:32:54;11.90;99.90
15364;DHT22;7781;49.690;6.472;2023-05-27T05:35:27;11.90;99.90
15364;DHT22;7781;49.690;6.472;2023-05-27T05:38:08;11.90;99.90
15364;DHT22;7781;49.690;6.472;2023-05-27T05:40:37;12.00;99.90
15364;DHT22;7781;49.690;6.472;2023-05-27T05:43:14;12.10;99.90
15364;DHT22;7781;49.690;6.472;2023-05-27T05:45:44;12.10;99.90
15364;DHT22;7781;49.690;6.472;2023-05-27T05:48:15;12.10;99.90
15364;DHT22;7781;49.690;6.472;2023-05-27T05:50:48;12.20;99.90
15364;DHT22;7781;49.690;6.472;2023-05-27T05:53:18;12.30;99.90
15364;DHT22;7781;49.690;6.472;2023-05-27T05:55:47;12.30;99.90
15364;DHT22;7781;49.690;6.472;2023-05-27T05:58:19;12.40;99.90
15364;DHT22;7781;49.690;6.472;2023-05-27T06:00:50;12.50;99.90
15364;DHT22;7781;49.690;6.472;2023-05-27T06:03:32;12.60;99.90
15364;DHT22;7781;49.690;6.472;2023-05-27T06:06:06;12.60;99.90
15364;DHT22;7781;49.690;6.472;2023-05-27T06:08:55;12.70;99.90
15364;DHT22;7781;49.690;6.472;2023-05-27T06:11:24;12.80;99.90
15364;DHT22;7781;49.690;6.472;2023-05-27T06:13:53;12.90;99.90
15364;DHT22;7781;49.690;6.472;2023-05-27T06:16:35;13.00;99.90
15364;DHT22;7781;49.690;6.472;2023-05-27T06:19:20;13.00;99.90
15364;DHT22;7781;49.690;6.472;2023-05-27T06:22:14;13.10;99.90
15364;DHT22;7781;49.690;6.472;2023-05-27T06:25:26;13.20;99.90
15364;DHT22;7781;49.690;6.472;2023-05-27T06:28:31;13.30;99.90
15364;DHT22;7781;49.690;6.472;2023-05-27T06:31:13;13.40;99.90
15364;DHT22;7781;49.690;6.472;2023-05-27T06:33:48;13.60;99.90
15364;DHT22;7781;49.690;6.472;2023-05-27T06:36:49;13.70;99.90
15364;DHT22;7781;49.690;6.472;2023-05-27T06:39:59;13.70;99.90
15364;DHT22;7781;49.690;6.472;2023-05-27T06:42:49;13.80;99.90
15364;DHT22;7781;49.690;6.472;2023-05-27T06:45:55;13.90;99.90
15364;DHT22;7781;49.690;6.472;2023-05-27T06:49:20;14.00;99.90
15364;DHT22;7781;49.690;6.472;2023-05-27T06:52:20;14.20;99.90
15364;DHT22;7781;49.690;6.472;2023-05-27T06:56:02;14.30;99.90
15364;DHT22;7781;49.690;6.472;2023-05-27T06:59:08;14.40;99.90
15364;DHT22;7781;49.690;6.472;2023-05-27T07:01:37;14.60;99.90
15364;DHT22;7781;49.690;6.472;2023-05-27T07:04:10;14.60;99.90
15364;DHT22;7781;49.690;6.472;2023-05-27T07:06:54;14.70;99.90
15364;DHT22;7781;49.690;6.472;2023-05-27T07:09:25;14.80;99.90
15364;DHT22;7781;49.690;6.472;2023-05-27T07:11:55;14.90;99.90
15364;DHT22;7781;49.690;6.472;2023-05-27T07:14:56;15.00;99.90
15364;DHT22;7781;49.690;6.472;2023-05-27T07:17:26;15.10;99.90
15364;DHT22;7781;49.690;6.472;2023-05-27T07:19:58;15.20;99.90
15364;DHT22;7781;49.690;6.472;2023-05-27T07:22:27;15.20;99.90
15364;DHT22;7781;49.690;6.472;2023-05-27T07:24:57;15.30;99.90
15364;DHT22;7781;49.690;6.472;2023-05-27T07:27:31;15.30;99.90
15364;DHT22;7781;49.690;6.472;2023-05-27T07:29:59;15.40;99.90
15364;DHT22;7781;49.690;6.472;2023-05-27T07:32:53;15.40;99.90
15364;DHT22;7781;49.690;6.472;2023-05-27T07:35:22;15.50;99.90
15364;DHT22;7781;49.690;6.472;2023-05-27T07:37:51;15.60;99.90
15364;DHT22;7781;49.690;6.472;2023-05-27T07:40:21;15.70;99.90
15364;DHT22;7781;49.690;6.472;2023-05-27T07:42:51;15.80;99.90
15364;DHT22;7781;49.690;6.472;2023-05-27T07:45:20;15.80;99.90
15364;DHT22;7781;49.690;6.472;2023-05-27T07:47:51;15.90;99.90
15364;DHT22;7781;49.690;6.472;2023-05-27T07:50:20;15.90;99.90
15364;DHT22;7781;49.690;6.472;2023-05-27T07:52:56;16.00;99.90
15364;DHT22;7781;49.690;6.472;2023-05-27T07:55:28;16.20;99.90
15364;DHT22;7781;49.690;6.472;2023-05-27T07:57:59;16.30;99.90
15364;DHT22;7781;49.690;6.472;2023-05-27T08:00:34;16.30;99.90
15364;DHT22;7781;49.690;6.472;2023-05-27T08:03:04;16.40;99.90
15364;DHT22;7781;49.690;6.472;2023-05-27T08:05:53;16.50;99.90
15364;DHT22;7781;49.690;6.472;2023-05-27T08:08:57;16.60;99.90
15364;DHT22;7781;49.690;6.472;2023-05-27T08:11:34;16.60;99.90
15364;DHT22;7781;49.690;6.472;2023-05-27T08:14:39;16.60;99.90
15364;DHT22;7781;49.690;6.472;2023-05-27T08:17:14;16.60;99.90
15364;DHT22;7781;49.690;6.472;2023-05-27T08:20:02;16.70;99.90
15364;DHT22;7781;49.690;6.472;2023-05-27T08:23:03;16.80;99.90
15364;DHT22;7781;49.690;6.472;2023-05-27T08:25:50;16.90;99.90
15364;DHT22;7781;49.690;6.472;2023-05-27T08:28:52;16.90;99.90
15364;DHT22;7781;49.690;6.472;2023-05-27T08:31:49;17.00;99.90
15364;DHT22;7781;49.690;6.472;2023-05-27T08:34:18;17.10;99.90
15364;DHT22;7781;49.690;6.472;2023-05-27T08:36:48;17.20;99.90
15364;DHT22;7781;49.690;6.472;2023-05-27T08:39:17;17.30;99.90
15364;DHT22;7781;49.690;6.472;2023-05-27T08:41:56;17.30;99.90
15364;DHT22;7781;49.690;6.472;2023-05-27T08:44:25;17.40;99.90
15364;DHT22;7781;49.690;6.472;2023-05-27T08:47:01;17.50;99.90
15364;DHT22;7781;49.690;6.472;2023-05-27T08:49:31;17.60;99.90
15364;DHT22;7781;49.690;6.472;2023-05-27T08:52:02;17.70;99.90
15364;DHT22;7781;49.690;6.472;2023-05-27T08:54:32;17.80;99.90
15364;DHT22;7781;49.690;6.472;2023-05-27T08:57:06;17.90;99.90
15364;DHT22;7781;49.690;6.472;2023-05-27T08:59:39;18.00;99.90
15364;DHT22;7781;49.690;6.472;2023-05-27T09:02:12;18.20;99.90
15364;DHT22;7781;49.690;6.472;2023-05-27T09:04:42;18.30;99.90
15364;DHT22;7781;49.690;6.472;2023-05-27T09:07:11;18.30;99.90
15364;DHT22;7781;49.690;6.472;2023-05-27T09:09:40;18.50;99.90
15364;DHT22;7781;49.690;6.472;2023-05-27T09:12:09;18.50;99.90
15364;DHT22;7781;49.690;6.472;2023-05-27T09:14:39;18.60;99.90
15364;DHT22;7781;49.690;6.472;2023-05-27T09:17:11;18.70;99.90
15364;DHT22;7781;49.690;6.472;2023-05-27T09:19:39;18.80;99.90
15364;DHT22;7781;49.690;6.472;2023-05-27T09:22:19;18.90;99.90
15364;DHT22;7781;49.690;6.472;2023-05-27T09:24:49;19.00;99.90
15364;DHT22;7781;49.690;6.472;2023-05-27T09:27:18;19.10;99.90
15364;DHT22;7781;49.690;6.472;2023-05-27T09:29:47;19.20;99.90
15364;DHT22;7781;49.690;6.472;2023-05-27T09:35:29;19.40;99.90
15364;DHT22;7781;49.690;6.472;2023-05-27T09:38:05;19.60;99.90
15364;DHT22;7781;49.690;6.472;2023-05-27T09:40:35;19.60;99.90
15364;DHT22;7781;49.690;6.472;2023-05-27T09:43:05;19.70;99.90
15364;DHT22;7781;49.690;6.472;2023-05-27T09:45:34;19.70;99.90
15364;DHT22;7781;49.690;6.472;2023-05-27T09:48:04;19.70;99.90
15364;DHT22;7781;49.690;6.472;2023-05-27T09:50:35;19.70;99.90
15364;DHT22;7781;49.690;6.472;2023-05-27T09:53:06;19.80;99.90
15364;DHT22;7781;49.690;6.472;2023-05-27T09:55:39;19.90;99.90
15364;DHT22;7781;49.690;6.472;2023-05-27T09:58:09;20.00;99.90
15364;DHT22;7781;49.690;6.472;2023-05-27T10:00:39;20.10;99.90
15364;DHT22;7781;49.690;6.472;2023-05-27T10:03:10;20.30;99.90
15364;DHT22;7781;49.690;6.472;2023-05-27T10:05:43;20.40;99.90
15364;DHT22;7781;49.690;6.472;2023-05-27T10:08:20;20.60;99.90
15364;DHT22;7781;49.690;6.472;2023-05-27T10:10:53;20.60;99.90
15364;DHT22;7781;49.690;6.472;2023-05-27T10:13:23;20.70;99.90
15364;DHT22;7781;49.690;6.472;2023-05-27T10:15:53;20.80;99.90
15364;DHT22;7781;49.690;6.472;2023-05-27T10:18:23;20.90;99.90
15364;DHT22;7781;49.690;6.472;2023-05-27T10:20:55;20.90;99.90
15364;DHT22;7781;49.690;6.472;2023-05-27T10:23:27;21.00;99.90
15364;DHT22;7781;49.690;6.472;2023-05-27T10:26:01;21.10;99.90
15364;DHT22;7781;49.690;6.472;2023-05-27T10:28:31;21.20;99.90
15364;DHT22;7781;49.690;6.472;2023-05-27T10:31:04;21.30;99.90
15364;DHT22;7781;49.690;6.472;2023-05-27T10:33:35;21.50;99.90
15364;DHT22;7781;49.690;6.472;2023-05-27T10:36:07;21.60;99.90
15364;DHT22;7781;49.690;6.472;2023-05-27T10:38:37;21.70;99.90
15364;DHT22;7781;49.690;6.472;2023-05-27T10:41:07;22.00;99.90
15364;DHT22;7781;49.690;6.472;2023-05-27T10:43:36;22.20;99.90
15364;DHT22;7781;49.690;6.472;2023-05-27T10:46:07;22.40;99.90
15364;DHT22;7781;49.690;6.472;2023-05-27T10:48:38;22.60;99.90
15364;DHT22;7781;49.690;6.472;2023-05-27T10:51:09;22.90;99.90
15364;DHT22;7781;49.690;6.472;2023-05-27T10:53:38;23.10;99.90
15364;DHT22;7781;49.690;6.472;2023-05-27T10:56:07;23.30;99.90
15364;DHT22;7781;49.690;6.472;2023-05-27T10:58:37;23.50;99.90
15364;DHT22;7781;49.690;6.472;2023-05-27T11:01:10;23.70;99.90
15364;DHT22;7781;49.690;6.472;2023-05-27T11:03:43;23.90;99.90
15364;DHT22;7781;49.690;6.472;2023-05-27T11:06:15;24.00;99.90
15364;DHT22;7781;49.690;6.472;2023-05-27T11:08:44;24.20;99.90
15364;DHT22;7781;49.690;6.472;2023-05-27T11:11:12;24.40;99.90
15364;DHT22;7781;49.690;6.472;2023-05-27T11:13:42;24.50;99.90
15364;DHT22;7781;49.690;6.472;2023-05-27T11:16:15;24.70;99.90
15364;DHT22;7781;49.690;6.472;2023-05-27T11:18:45;24.80;99.90
15364;DHT22;7781;49.690;6.472;2023-05-27T11:21:16;24.80;99.90
15364;DHT22;7781;49.690;6.472;2023-05-27T11:23:46;24.90;99.90
15364;DHT22;7781;49.690;6.472;2023-05-27T11:26:17;25.00;99.90
15364;DHT22;7781;49.690;6.472;2023-05-27T11:28:50;25.10;99.90
15364;DHT22;7781;49.690;6.472;2023-05-27T11:31:21;25.30;99.90
15364;DHT22;7781;49.690;6.472;2023-05-27T11:33:51;25.30;99.90
15364;DHT22;7781;49.690;6.472;2023-05-27T11:36:21;25.30;99.90
15364;DHT22;7781;49.690;6.472;2023-05-27T11:38:54;25.30;99.90
15364;DHT22;7781;49.690;6.472;2023-05-27T11:41:26;25.30;99.90
15364;DHT22;7781;49.690;6.472;2023-05-27T11:43:56;25.60;99.90
15364;DHT22;7781;49.690;6.472;2023-05-27T11:46:34;25.90;99.90
15364;DHT22;7781;49.690;6.472;2023-05-27T11:49:03;26.20;99.90
15364;DHT22;7781;49.690;6.472;2023-05-27T11:51:36;26.50;99.90
15364;DHT22;7781;49.690;6.472;2023-05-27T11:54:05;26.50;99.90
15364;DHT22;7781;49.690;6.472;2023-05-27T11:56:34;26.60;99.90
15364;DHT22;7781;49.690;6.472;2023-05-27T11:59:03;26.60;99.90
15364;DHT22;7781;49.690;6.472;2023-05-27T12:01:33;26.60;99.90
15364;DHT22;7781;49.690;6.472;2023-05-27T12:04:02;26.80;99.90
15364;DHT22;7781;49.690;6.472;2023-05-27T12:06:31;26.90;99.90
15364;DHT22;7781;49.690;6.472;2023-05-27T12:09:02;27.10;99.90
15364;DHT22;7781;49.690;6.472;2023-05-27T12:11:30;27.50;99.90
15364;DHT22;7781;49.690;6.472;2023-05-27T12:13:59;27.70;99.90
15364;DHT22;7781;49.690;6.472;2023-05-27T12:16:28;27.90;99.90
15364;DHT22;7781;49.690;6.472;2023-05-27T12:18:57;28.00;99.90
15364;DHT22;7781;49.690;6.472;2023-05-27T12:21:26;28.00;99.90
15364;DHT22;7781;49.690;6.472;2023-05-27T12:23:54;28.10;99.90
15364;DHT22;7781;49.690;6.472;2023-05-27T12:26:24;28.30;99.90
15364;DHT22;7781;49.690;6.472;2023-05-27T12:28:53;28.50;99.90
15364;DHT22;7781;49.690;6.472;2023-05-27T12:31:23;28.50;99.90
15364;DHT22;7781;49.690;6.472;2023-05-27T12:33:53;28.80;99.90
15364;DHT22;7781;49.690;6.472;2023-05-27T12:36:21;28.90;99.90
15364;DHT22;7781;49.690;6.472;2023-05-27T12:38:50;29.10;99.90
15364;DHT22;7781;49.690;6.472;2023-05-27T12:41:19;29.30;99.90
15364;DHT22;7781;49.690;6.472;2023-05-27T12:43:49;29.60;99.90
15364;DHT22;7781;49.690;6.472;2023-05-27T12:46:17;29.90;99.90
15364;DHT22;7781;49.690;6.472;2023-05-27T12:48:46;30.00;99.90
15364;DHT22;7781;49.690;6.472;2023-05-27T12:51:15;30.00;99.90
15364;DHT22;7781;49.690;6.472;2023-05-27T12:53:43;29.90;99.90
15364;DHT22;7781;49.690;6.472;2023-05-27T12:56:12;30.20;99.90
15364;DHT22;7781;49.690;6.472;2023-05-27T12:58:41;30.60;99.90
15364;DHT22;7781;49.690;6.472;2023-05-27T13:01:11;30.90;99.90
15364;DHT22;7781;49.690;6.472;2023-05-27T13:03:40;29.80;99.90
15364;DHT22;7781;49.690;6.472;2023-05-27T13:06:10;30.40;99.90
15364;DHT22;7781;49.690;6.472;2023-05-27T13:08:40;30.50;99.90
15364;DHT22;7781;49.690;6.472;2023-05-27T13:11:08;31.00;99.90
15364;DHT22;7781;49.690;6.472;2023-05-27T13:13:39;31.50;99.90
15364;DHT22;7781;49.690;6.472;2023-05-27T13:16:12;31.80;99.90
15364;DHT22;7781;49.690;6.472;2023-05-27T13:18:40;32.00;99.90
15364;DHT22;7781;49.690;6.472;2023-05-27T13:21:10;32.20;99.90
15364;DHT22;7781;49.690;6.472;2023-05-27T13:23:39;32.10;99.90
15364;DHT22;7781;49.690;6.472;2023-05-27T13:26:08;32.30;99.90
15364;DHT22;7781;49.690;6.472;2023-05-27T13:28:39;32.30;99.90
15364;DHT22;7781;49.690;6.472;2023-05-27T13:31:08;32.40;99.90
15364;DHT22;7781;49.690;6.472;2023-05-27T13:33:41;32.50;99.90
15364;DHT22;7781;49.690;6.472;2023-05-27T13:36:10;32.70;99.90
15364;DHT22;7781;49.690;6.472;2023-05-27T13:38:38;32.00;99.90
15364;DHT22;7781;49.690;6.472;2023-05-27T13:41:07;31.90;99.90
15364;DHT22;7781;49.690;6.472;2023-05-27T13:43:36;32.30;99.90
15364;DHT22;7781;49.690;6.472;2023-05-27T13:46:04;32.60;99.90
15364;DHT22;7781;49.690;6.472;2023-05-27T13:48:33;33.00;99.90
15364;DHT22;7781;49.690;6.472;2023-05-27T13:51:03;33.20;99.90
15364;DHT22;7781;49.690;6.472;2023-05-27T13:53:32;33.30;99.90
15364;DHT22;7781;49.690;6.472;2023-05-27T13:56:02;33.10;99.90
15364;DHT22;7781;49.690;6.472;2023-05-27T13:58:31;33.00;99.90
15364;DHT22;7781;49.690;6.472;2023-05-27T14:01:03;33.20;99.90
15364;DHT22;7781;49.690;6.472;2023-05-27T14:03:32;32.30;99.90
15364;DHT22;7781;49.690;6.472;2023-05-27T14:06:03;32.40;99.90
15364;DHT22;7781;49.690;6.472;2023-05-27T14:08:31;32.90;99.90
15364;DHT22;7781;49.690;6.472;2023-05-27T14:11:00;32.80;99.90
15364;DHT22;7781;49.690;6.472;2023-05-27T14:13:29;33.40;99.90
15364;DHT22;7781;49.690;6.472;2023-05-27T14:15:58;33.50;99.90
15364;DHT22;7781;49.690;6.472;2023-05-27T14:18:26;33.70;99.90
15364;DHT22;7781;49.690;6.472;2023-05-27T14:20:56;33.40;99.90
15364;DHT22;7781;49.690;6.472;2023-05-27T14:23:28;33.70;99.90
15364;DHT22;7781;49.690;6.472;2023-05-27T14:25:56;34.00;99.90
15364;DHT22;7781;49.690;6.472;2023-05-27T14:28:25;34.10;99.90
15364;DHT22;7781;49.690;6.472;2023-05-27T14:30:53;34.20;99.90
15364;DHT22;7781;49.690;6.472;2023-05-27T14:33:22;34.10;99.90
15364;DHT22;7781;49.690;6.472;2023-05-27T14:35:52;33.80;99.90
15364;DHT22;7781;49.690;6.472;2023-05-27T14:38:20;33.80;99.90
15364;DHT22;7781;49.690;6.472;2023-05-27T14:40:54;33.60;99.90
15364;DHT22;7781;49.690;6.472;2023-05-27T14:43:23;33.80;99.90
15364;DHT22;7781;49.690;6.472;2023-05-27T14:45:52;33.90;99.90
15364;DHT22;7781;49.690;6.472;2023-05-27T14:48:20;34.10;99.90
15364;DHT22;7781;49.690;6.472;2023-05-27T14:50:49;34.10;99.90
15364;DHT22;7781;49.690;6.472;2023-05-27T14:53:18;34.30;99.90
15364;DHT22;7781;49.690;6.472;2023-05-27T14:55:47;33.80;99.90
15364;DHT22;7781;49.690;6.472;2023-05-27T14:58:19;33.60;99.90
15364;DHT22;7781;49.690;6.472;2023-05-27T15:00:49;33.40;99.90
15364;DHT22;7781;49.690;6.472;2023-05-27T15:03:17;33.30;99.90
15364;DHT22;7781;49.690;6.472;2023-05-27T15:05:46;33.20;99.90
15364;DHT22;7781;49.690;6.472;2023-05-27T15:08:16;33.30;99.90
15364;DHT22;7781;49.690;6.472;2023-05-27T15:10:44;33.40;99.90
15364;DHT22;7781;49.690;6.472;2023-05-27T15:13:15;33.40;99.90
15364;DHT22;7781;49.690;6.472;2023-05-27T15:15:48;33.30;99.90
15364;DHT22;7781;49.690;6.472;2023-05-27T15:18:18;33.10;99.90
15364;DHT22;7781;49.690;6.472;2023-05-27T15:20:47;33.10;99.90
15364;DHT22;7781;49.690;6.472;2023-05-27T15:23:16;32.90;99.90
15364;DHT22;7781;49.690;6.472;2023-05-27T15:25:45;33.00;99.90
15364;DHT22;7781;49.690;6.472;2023-05-27T15:28:14;33.00;99.90
15364;DHT22;7781;49.690;6.472;2023-05-27T15:30:47;33.00;99.90
15364;DHT22;7781;49.690;6.472;2023-05-27T15:33:16;32.70;99.90
15364;DHT22;7781;49.690;6.472;2023-05-27T15:35:45;32.50;99.90
15364;DHT22;7781;49.690;6.472;2023-05-27T15:38:15;32.00;99.90
15364;DHT22;7781;49.690;6.472;2023-05-27T15:40:44;31.50;99.90
15364;DHT22;7781;49.690;6.472;2023-05-27T15:43:13;31.10;99.90
15364;DHT22;7781;49.690;6.472;2023-05-27T15:45:44;30.90;99.90
15364;DHT22;7781;49.690;6.472;2023-05-27T15:48:31;30.70;99.90
15364;DHT22;7781;49.690;6.472;2023-05-27T15:51:02;30.60;99.90
15364;DHT22;7781;49.690;6.472;2023-05-27T15:53:31;30.60;99.90
15364;DHT22;7781;49.690;6.472;2023-05-27T15:56:00;30.40;99.90
15364;DHT22;7781;49.690;6.472;2023-05-27T15:58:30;30.10;99.90
15364;DHT22;7781;49.690;6.472;2023-05-27T16:00:59;29.80;99.90
15364;DHT22;7781;49.690;6.472;2023-05-27T16:03:30;29.50;99.90
15364;DHT22;7781;49.690;6.472;2023-05-27T16:05:59;29.00;99.90
15364;DHT22;7781;49.690;6.472;2023-05-27T16:08:29;28.80;99.90
15364;DHT22;7781;49.690;6.472;2023-05-27T16:10:58;28.50;99.90
15364;DHT22;7781;49.690;6.472;2023-05-27T16:13:27;28.30;99.90
15364;DHT22;7781;49.690;6.472;2023-05-27T16:15:55;28.20;99.90
15364;DHT22;7781;49.690;6.472;2023-05-27T16:18:25;28.10;99.90
15364;DHT22;7781;49.690;6.472;2023-05-27T16:20:55;27.90;99.90